Address 0xeac35f85ddcbd3e57c9c5951b0972749f180d4c7 1

Txn Hash Method
Block
From
To
Value [Txn Fee]
0xbb8d2cf3da58a5e1a2dc4bec620a16954775f0d6b5c429e5e373662f8bbe1ce0Transfer22691182022-11-10 18:20:5485 days 17 hrs ago0xeac35f85ddcbd3e57c9c5951b0972749f180d4c7OUT0x95a118080d47d457ee912f55f738ed0d525558632.053477786134114 GLMR0.0021315
0x45b39909f23b1a5a8f6cb6bbea592fcd0b3ccd4d686ee045b18b2f4df9d978ffTransfer22691152022-11-10 18:20:1885 days 17 hrs ago0xeac35f85ddcbd3e57c9c5951b0972749f180d4c7OUT Nomad: madDAI Token0 GLMR0.0045964275
0x2b6bc061f5f55c038653e21145fbfb6e5dab5b02c9cf937022869722590a979aTransfer22691112022-11-10 18:19:3085 days 17 hrs ago0xeac35f85ddcbd3e57c9c5951b0972749f180d4c7OUT 0xa9a8365183b94d420da11253b3b191101e9c0f910 GLMR0.004723404
0x777c2bcae9b2e161bce1fbb5f17b1995063c8e72cc90893e2b263658ba3f4a3fTransfer22691072022-11-10 18:18:4285 days 17 hrs ago0xeac35f85ddcbd3e57c9c5951b0972749f180d4c7OUT Nomad: madWETH Token0 GLMR0.004595514
0xf0e4e9edc3c66b690be1eb616d8258e53092514e0e5d0dafce9ce58215233adaTransfer22691042022-11-10 18:18:0685 days 17 hrs ago0xeac35f85ddcbd3e57c9c5951b0972749f180d4c7OUT Moonbeam: WGLMR Token0 GLMR0.0039640825
0x67565d9d9e3b0e16bb7d018e2325f062b5ffa4d58e45295cdde13ba12a7d2602Transfer22593502022-11-09 8:44:2487 days 3 hrs ago0xeac35f85ddcbd3e57c9c5951b0972749f180d4c7OUT Multichain: Polygon (Matic) Token0 GLMR0.003961748
0xf3ad3aa678fc4b5716b1a16dd2e3110d70859c7686dd240b9c7ddc236de4cb8eTransfer22592732022-11-09 8:28:2487 days 3 hrs ago0xeac35f85ddcbd3e57c9c5951b0972749f180d4c7OUT StellaSwap: STELLA Token0 GLMR0.004029753
0xe13b5775066b1cb093f6aecad817ae31f67482167533fc6c39db644dcccdeedeTransfer22591812022-11-09 8:09:3687 days 4 hrs ago0xeac35f85ddcbd3e57c9c5951b0972749f180d4c7OUT Nomad: madUSDC Token0 GLMR0.004590642
0x4c72cb88304cf5c6b33d8d5a2cab900a0736534d86b7e6c07ee8655d49b2337eTransfer11403912022-05-31 9:29:36249 days 2 hrs ago0xeac35f85ddcbd3e57c9c5951b0972749f180d4c7OUT0x0d8be1fdd0520f7c987ecfd5def890beb41e9ff5158 GLMR0.0021315
0x23dfbea4a54da6257d2f85bf48e372792233c22e33214a96dfd68345794f73ccTransfer11403862022-05-31 9:28:36249 days 2 hrs agoBinance 1 IN 0xeac35f85ddcbd3e57c9c5951b0972749f180d4c7109.2 GLMR0.0042
0xb0809e76a8d83deede297756c8d63fa27705950c043b7d7b7c29ecb8a72068adSwap Exact ETH F...8588242022-04-20 9:57:00290 days 2 hrs ago0xeac35f85ddcbd3e57c9c5951b0972749f180d4c7OUT 0xdf470d3cca35edcc29ef4b9d42cb58e3b22388840.1 GLMR0.012510484
0x899b7ae3ab663a65c9864504043aebd17fb1297eafa16b281c9cfa905973cb6eAdd Liquidity ET...8588142022-04-20 9:55:00290 days 2 hrs ago0xeac35f85ddcbd3e57c9c5951b0972749f180d4c7OUT 0xdf470d3cca35edcc29ef4b9d42cb58e3b22388840.105238317432047 GLMR0.012388278
0xac334f947403a948d755629bdabccdc77f206a6ab1e2ffef12c83121a038e807Add Liquidity8587762022-04-20 9:47:12290 days 2 hrs ago0xeac35f85ddcbd3e57c9c5951b0972749f180d4c7OUT 0xdf470d3cca35edcc29ef4b9d42cb58e3b22388840 GLMR0.010449019
0xa5783506fd6ec060b150e53032f9b12139a07c81b5d2aca90833d98685ffa144Withdraw And Har...8163052022-04-14 7:43:06296 days 4 hrs ago0xeac35f85ddcbd3e57c9c5951b0972749f180d4c7OUT 0x0ce2ce45563bfcad73a3d874daf21fd2e582e3640 GLMR0.0101462445
0x7af212ea8a97dcc994ca31abcbd850b9da51833f0c0825ad26ed71f54b3c3276Withdraw8158332022-04-14 6:06:36296 days 6 hrs ago0xeac35f85ddcbd3e57c9c5951b0972749f180d4c7OUT 0xff74223d9a04c17f11cfd85128539c97c435acf00 GLMR0.011598608
0x975a90000a1f9a6b6f2221aa2ec95d872eefea0432e5a274eac7625d8c11a753Deposit8158202022-04-14 6:03:36296 days 6 hrs ago0xeac35f85ddcbd3e57c9c5951b0972749f180d4c7OUT 0xff74223d9a04c17f11cfd85128539c97c435acf00 GLMR0.012314386
0x6ea3a7d9ff3bcd5245cdc63a2ceffcdad95b5d6514d79ba219dde91b75a5d3b4Withdraw8135372022-04-13 22:16:24296 days 13 hrs ago0xeac35f85ddcbd3e57c9c5951b0972749f180d4c7OUT 0xff74223d9a04c17f11cfd85128539c97c435acf00 GLMR0.0132154015
0xeff556a97163301de272a2fefeb43fad91de01299d867b26965fea1c0502e570Deposit8135302022-04-13 22:15:00296 days 13 hrs ago0xeac35f85ddcbd3e57c9c5951b0972749f180d4c7OUT 0xff74223d9a04c17f11cfd85128539c97c435acf00 GLMR0.012314386
0xefd24f7c4c5f38f4c3f0b22621abb7bf5362b3a06d3dbbaa8168f516156d0fe1Approve8135272022-04-13 22:14:24296 days 13 hrs ago0xeac35f85ddcbd3e57c9c5951b0972749f180d4c7OUT 0x6c9b048354b3e1527d55dca5ad8d9513944609dc0 GLMR0.0047180245
0xe95327d8603bbff2c9732528740d07833a92c18894e730feb4596075c81d7f08Transfer8108052022-04-13 12:50:48296 days 23 hrs ago0xf0851b65ced5c90d21cf6bd87b9672d6daca92d9 IN 0xeac35f85ddcbd3e57c9c5951b0972749f180d4c728.8 GLMR0.0021315
0xd7490181cab0483a616ed9577059f6cb3c390ad09ba05ed21597c199ae302149Add Liquidity8100632022-04-13 10:19:00297 days 1 hr ago0xeac35f85ddcbd3e57c9c5951b0972749f180d4c7OUT 0xdf470d3cca35edcc29ef4b9d42cb58e3b22388840 GLMR0.012463997
0x7c1138f02e1c3b378621f61af61b3eab3423efe4783fed03d0fa4b2e10a784b6Deposit8098162022-04-13 9:28:36297 days 2 hrs ago0xeac35f85ddcbd3e57c9c5951b0972749f180d4c7OUT 0x0ce2ce45563bfcad73a3d874daf21fd2e582e3640 GLMR0.0141422995
0xf7b724d78549d8ca54e72bb3ac453c1ce2141502bc59aaad488eb3d87bf8cc92Withdraw And Har...8097802022-04-13 9:21:18297 days 2 hrs ago0xeac35f85ddcbd3e57c9c5951b0972749f180d4c7OUT 0x0ce2ce45563bfcad73a3d874daf21fd2e582e3640 GLMR0.0101462445
0x49b3e8007673eede383321444d258227ec91b681dccb1a78f099fbfabe440560Withdraw And Har...8097752022-04-13 9:20:18297 days 2 hrs ago0xeac35f85ddcbd3e57c9c5951b0972749f180d4c7OUT 0x0ce2ce45563bfcad73a3d874daf21fd2e582e3640 GLMR0.0126827295
0x5c910696307db9bcf7f721eb74f4f06a18d0e67cdbe5f9b8d8604b5bc0843c46Withdraw And Har...8097672022-04-13 9:18:42297 days 2 hrs ago0xeac35f85ddcbd3e57c9c5951b0972749f180d4c7OUT 0x0ce2ce45563bfcad73a3d874daf21fd2e582e3640 GLMR0.0147025795
[ Download CSV Export 
Latest 3 internal transactions
Parent Txn Hash Block From To Value
0x4a6dc1e60aec93a225b8f629a2a58dce381d687049cca1f026433ea2134df9627003652022-03-28 16:17:42312 days 19 hrs ago SushiSwap: Router0xeac35f85ddcbd3e57c9c5951b0972749f180d4c79.999999999999999985 GLMR
0xf46040bbb2da1cbfb128cb9fa6ffd6856ae73453332c17c2928bba32293e6b336998832022-03-28 14:38:38312 days 21 hrs ago SushiSwap: Router0xeac35f85ddcbd3e57c9c5951b0972749f180d4c70.99999999999999898 GLMR
0xfef1799f24f7579515e3b29838ec71ea1732e474d803545d4a7cac0240530ddb6998772022-03-28 14:37:06312 days 21 hrs ago SushiSwap: Router0xeac35f85ddcbd3e57c9c5951b0972749f180d4c70.993505791786546477 GLMR
[ Download CSV Export 
Loading

Contract Name:
0

Compiler Version
0

Optimization Enabled:
0

Other Settings:
-NA-
Block Transaction Gas Used Reward
Age Block Fee Address BC Fee Address Voting Power Jailed Incoming
Block Uncle Number Difficulty Gas Used Reward
Loading
Make sure to use the "Vote Down" button for any spammy posts, and the "Vote Up" for interesting conversations.